Meridian, MS

2:04 PM CDT on August 24, 2016 (GMT -0500)
Key | | Change Station

Elev 308 ft 32.33 °N, 88.75 °W | Updated 6 minutes ago

Mostly Cloudy
Mostly Cloudy
96 °F
Feels Like 106 °F
N
4
Wind Variable Wind from NE

Today
High -- | Low -- °F
--% Chance of Precip.
Yesterday
High -- | Low -- °F
Precip. -- in
Pressure 30.14 in
Visibility 10.0 miles
Clouds Few 4800 ft
Scattered Clouds 6500 ft
Mostly Cloudy 8000 ft
Heat Index 106 °F
Dew Point 73 °F
Humidity 47%
Rainfall 0.00 in
Snow Depth Not available.
6:25 AM 7:28 PM
Waning Gibbous, 54% visible
METAR KMEI 241858Z 04003KT 10SM FEW048 SCT065 BKN080 36/23 A3015 RMK AO2 SLP204 T03560228
Pressure 30.14 in
Visibility 10.0 miles
Clouds Few 4800 ft
Scattered Clouds 6500 ft
Mostly Cloudy 8000 ft
Heat Index 106 °F
Dew Point 73 °F
Humidity 47%
Rainfall 0.00 in
Snow Depth Not available.
6:25 AM 7:28 PM
Waning Gibbous, 54% visible
METAR KMEI 241858Z 04003KT 10SM FEW048 SCT065 BKN080 36/23 A3015 RMK AO2 SLP204 T03560228

10-Day Weather Forecast

Almanac

Astronomy

Aug. 24, 2016 Rise Set
Actual Time
Civil Twilight
Nautical Twilight
Astronomical Twilight
Moon
Length of Visible Light
Length of Day
Tomorrow will be .
, % of the Moon is Illuminated

Today's Extremes

State Highs State Lows

Community

WunderPhotos

Upload Photos

1,934,684 photos uploaded!

WunderBlog® & News

Nearby

Air Quality

  Air Quality AQ Index Pollutant
Not available.

Snow Depth

Station Depth Elevation

Earthquake Activity

City Distance Mag. Time & Date
Minimum magnitude displayed is 2.5.

Coastal Water Temperatures

Place Temperature

Stations

Nearby Weather Stations

Station Location Temp. Windchill Dew Point Humidity Wind Precip. Elev Updated Type
                   

Watches & Warnings

There are currently no watches in effect.